ACA8369 KLGA-CYUL
Flight info
| Callsign | ACA8369 |
|---|---|
| Flight time | N/A |
| Altitude | 37000 |
| Route | GREKI DCT JUDDS DCT CAM DCT JASDU DCT PBERG CARTR5 |
| Aircraft | A320/M-SDE3FGHIRWY/LB1 |
Departure
| Time | N/A |
|---|---|
| Airport | LaGuardia Airport (KLGA) |
Arrival
| Time | 2026-05-03 22:18 |
|---|---|
| Airport | Montreal / Pierre Elliott Trudeau International Airport (CYUL) |
| Time | Latitude | Longitude | Altitude | Speed | Heading |
|---|---|---|---|---|---|
| 2026-05-03 21:23 | 41.47216 | -73.32071 | 25692 ft | 404 kts | 29° |
| 2026-05-03 21:24 | 41.49396 | -73.29622 | 26173 ft | 415 kts | 39° |
| 2026-05-03 21:24 | 41.51458 | -73.26892 | 26569 ft | 420 kts | 39° |
| 2026-05-03 21:24 | 41.53536 | -73.24121 | 26983 ft | 424 kts | 39° |
| 2026-05-03 21:24 | 41.55626 | -73.21323 | 27382 ft | 428 kts | 39° |
| 2026-05-03 21:25 | 41.57736 | -73.18498 | 27786 ft | 431 kts | 39° |
| 2026-05-03 21:25 | 41.59999 | -73.15909 | 28175 ft | 427 kts | 28° |
| 2026-05-03 21:25 | 41.62555 | -73.13937 | 28552 ft | 422 kts | 18° |
| 2026-05-03 21:25 | 41.65304 | -73.12640 | 28929 ft | 417 kts | 7° |
| 2026-05-03 21:26 | 41.68154 | -73.12022 | 29302 ft | 413 kts | 358° |
| 2026-05-03 21:26 | 41.71005 | -73.12087 | 29658 ft | 409 kts | 348° |
| 2026-05-03 21:26 | 41.73828 | -73.12581 | 30021 ft | 411 kts | 347° |
| 2026-05-03 21:26 | 41.76675 | -73.13082 | 30322 ft | 414 kts | 347° |
| 2026-05-03 21:27 | 41.79542 | -73.13579 | 30585 ft | 417 kts | 347° |
| 2026-05-03 21:27 | 41.82433 | -73.14071 | 30857 ft | 420 kts | 347° |
| 2026-05-03 21:27 | 41.85348 | -73.14563 | 31125 ft | 424 kts | 347° |
| 2026-05-03 21:27 | 41.88245 | -73.15050 | 31379 ft | 427 kts | 347° |
| 2026-05-03 21:28 | 41.91206 | -73.15549 | 31644 ft | 429 kts | 347° |
| 2026-05-03 21:28 | 41.94167 | -73.16054 | 32007 ft | 430 kts | 347° |
| 2026-05-03 21:28 | 41.97133 | -73.16567 | 32360 ft | 430 kts | 347° |
| 2026-05-03 21:28 | 42.00105 | -73.17080 | 32712 ft | 431 kts | 347° |
| 2026-05-03 21:29 | 42.03085 | -73.17591 | 33053 ft | 432 kts | 347° |
| 2026-05-03 21:29 | 42.06073 | -73.18103 | 33401 ft | 433 kts | 347° |
| 2026-05-03 21:29 | 42.09067 | -73.18617 | 33755 ft | 434 kts | 347° |
| 2026-05-03 21:29 | 42.12065 | -73.19133 | 34059 ft | 435 kts | 347° |
| 2026-05-03 21:30 | 42.15068 | -73.19655 | 34349 ft | 436 kts | 347° |
| 2026-05-03 21:30 | 42.18077 | -73.20179 | 34629 ft | 436 kts | 347° |
| 2026-05-03 21:30 | 42.21092 | -73.20700 | 34868 ft | 438 kts | 347° |
| 2026-05-03 21:30 | 42.24115 | -73.21219 | 35111 ft | 438 kts | 347° |
| 2026-05-03 21:31 | 42.27143 | -73.21740 | 35367 ft | 439 kts | 347° |
| 2026-05-03 21:31 | 42.30177 | -73.22263 | 35621 ft | 440 kts | 347° |
| 2026-05-03 21:31 | 42.33220 | -73.22788 | 35882 ft | 441 kts | 347° |
| 2026-05-03 21:31 | 42.36261 | -73.23315 | 36142 ft | 441 kts | 347° |
| 2026-05-03 21:32 | 42.39311 | -73.23846 | 36428 ft | 442 kts | 348° |
| 2026-05-03 21:32 | 42.42363 | -73.24379 | 36632 ft | 443 kts | 347° |
| 2026-05-03 21:32 | 42.45429 | -73.24915 | 36811 ft | 445 kts | 347° |
| 2026-05-03 21:32 | 42.46638 | -73.25124 | 36837 ft | 444 kts | 347° |
| 2026-05-03 21:34 | 42.48455 | -73.25439 | 36866 ft | 442 kts | 347° |
| 2026-05-03 21:35 | 42.51925 | -73.26042 | 36858 ft | 441 kts | 347° |
| 2026-05-03 21:35 | 42.57999 | -73.27102 | 36873 ft | 440 kts | 347° |
| 2026-05-03 21:36 | 42.64072 | -73.28168 | 36872 ft | 440 kts | 348° |
| 2026-05-03 21:36 | 42.70140 | -73.29235 | 36867 ft | 440 kts | 347° |
| 2026-05-03 21:37 | 42.75188 | -73.30124 | 36874 ft | 440 kts | 348° |
| 2026-05-03 21:37 | 42.78711 | -73.30741 | 36880 ft | 440 kts | 348° |
| 2026-05-03 21:38 | 42.79428 | -73.30867 | 36882 ft | 440 kts | 348° |
| 2026-05-03 21:38 | 42.85023 | -73.31845 | 36897 ft | 440 kts | 348° |
| 2026-05-03 21:39 | 42.89734 | -73.32672 | 36881 ft | 440 kts | 348° |
| 2026-05-03 21:39 | 42.90062 | -73.32730 | 36881 ft | 440 kts | 348° |
| 2026-05-03 21:40 | 42.93718 | -73.33384 | 36877 ft | 439 kts | 348° |
| 2026-05-03 21:40 | 42.99235 | -73.34367 | 36877 ft | 440 kts | 348° |
| 2026-05-03 21:41 | 43.05339 | -73.35130 | 36891 ft | 442 kts | 352° |
| 2026-05-03 21:41 | 43.11482 | -73.35570 | 36885 ft | 442 kts | 353° |
| 2026-05-03 21:42 | 43.12795 | -73.35656 | 36885 ft | 442 kts | 353° |
| 2026-05-03 21:42 | 43.16727 | -73.35942 | 36877 ft | 442 kts | 352° |
| 2026-05-03 21:43 | 43.22858 | -73.36461 | 36886 ft | 441 kts | 352° |
| 2026-05-03 21:43 | 43.28988 | -73.37032 | 36876 ft | 442 kts | 352° |
| 2026-05-03 21:44 | 43.35119 | -73.37600 | 36873 ft | 442 kts | 352° |
| 2026-05-03 21:44 | 43.41253 | -73.38158 | 36884 ft | 442 kts | 352° |
| 2026-05-03 21:45 | 43.47386 | -73.38718 | 36883 ft | 442 kts | 352° |
| 2026-05-03 21:45 | 43.53518 | -73.39263 | 36884 ft | 442 kts | 352° |
| 2026-05-03 21:46 | 43.59648 | -73.39817 | 36891 ft | 441 kts | 352° |
| 2026-05-03 21:46 | 43.65773 | -73.40383 | 36887 ft | 441 kts | 352° |
| 2026-05-03 21:47 | 43.71944 | -73.40949 | 36498 ft | 446 kts | 352° |
| 2026-05-03 21:47 | 43.75027 | -73.41266 | 35960 ft | 443 kts | 352° |
| 2026-05-03 21:47 | 43.78084 | -73.41613 | 35447 ft | 439 kts | 351° |
| 2026-05-03 21:48 | 43.81119 | -73.41977 | 34891 ft | 436 kts | 351° |
| 2026-05-03 21:48 | 43.84132 | -73.42342 | 34350 ft | 434 kts | 351° |
| 2026-05-03 21:48 | 43.87129 | -73.42700 | 33797 ft | 431 kts | 351° |
| 2026-05-03 21:48 | 43.90107 | -73.43047 | 33212 ft | 427 kts | 352° |
| 2026-05-03 21:49 | 43.93049 | -73.43383 | 32689 ft | 421 kts | 352° |
| 2026-05-03 21:49 | 43.95954 | -73.43709 | 32160 ft | 417 kts | 352° |
| 2026-05-03 21:49 | 43.98826 | -73.44030 | 31671 ft | 412 kts | 352° |
| 2026-05-03 21:49 | 44.01666 | -73.44351 | 31148 ft | 407 kts | 352° |
| 2026-05-03 21:50 | 44.04475 | -73.44670 | 30651 ft | 402 kts | 352° |
| 2026-05-03 21:50 | 44.07211 | -73.44984 | 30180 ft | 397 kts | 352° |
| 2026-05-03 21:50 | 44.09984 | -73.45303 | 29655 ft | 392 kts | 352° |
| 2026-05-03 21:50 | 44.12681 | -73.45613 | 29196 ft | 385 kts | 352° |
| 2026-05-03 21:51 | 44.15291 | -73.45913 | 28752 ft | 378 kts | 351° |
| 2026-05-03 21:51 | 44.17884 | -73.46209 | 28336 ft | 371 kts | 351° |
| 2026-05-03 21:51 | 44.20436 | -73.46501 | 27909 ft | 365 kts | 351° |
| 2026-05-03 21:51 | 44.22947 | -73.46789 | 27483 ft | 359 kts | 351° |
| 2026-05-03 21:52 | 44.25422 | -73.47075 | 27048 ft | 355 kts | 351° |
| 2026-05-03 21:52 | 44.27867 | -73.47359 | 26632 ft | 350 kts | 351° |
| 2026-05-03 21:52 | 44.30284 | -73.47638 | 26190 ft | 347 kts | 351° |
| 2026-05-03 21:52 | 44.32674 | -73.47911 | 25761 ft | 343 kts | 351° |
| 2026-05-03 21:53 | 44.35046 | -73.48182 | 25306 ft | 341 kts | 351° |
| 2026-05-03 21:53 | 44.37394 | -73.48454 | 24874 ft | 337 kts | 351° |
| 2026-05-03 21:53 | 44.39725 | -73.48728 | 24408 ft | 335 kts | 351° |
| 2026-05-03 21:53 | 44.42044 | -73.49000 | 23936 ft | 334 kts | 351° |
| 2026-05-03 21:54 | 44.44353 | -73.49270 | 23471 ft | 332 kts | 351° |
| 2026-05-03 21:54 | 44.46653 | -73.49538 | 22953 ft | 331 kts | 351° |
| 2026-05-03 21:54 | 44.48933 | -73.49802 | 22499 ft | 327 kts | 351° |
| 2026-05-03 21:54 | 44.51188 | -73.50065 | 22048 ft | 324 kts | 351° |
| 2026-05-03 21:55 | 44.53423 | -73.50324 | 21603 ft | 321 kts | 351° |
| 2026-05-03 21:55 | 44.55638 | -73.50581 | 21178 ft | 318 kts | 351° |
| 2026-05-03 21:55 | 44.57832 | -73.50836 | 20757 ft | 316 kts | 351° |
| 2026-05-03 21:55 | 44.60017 | -73.51089 | 20324 ft | 314 kts | 351° |
| 2026-05-03 21:56 | 44.62187 | -73.51341 | 19903 ft | 312 kts | 351° |
| 2026-05-03 21:56 | 44.64344 | -73.51591 | 19584 ft | 308 kts | 351° |
| 2026-05-03 21:56 | 44.66459 | -73.51834 | 19251 ft | 304 kts | 351° |
| 2026-05-03 21:56 | 44.68561 | -73.52078 | 18853 ft | 302 kts | 351° |
| 2026-05-03 21:57 | 44.70654 | -73.52323 | 18439 ft | 302 kts | 351° |
| 2026-05-03 21:57 | 44.72745 | -73.52572 | 18023 ft | 301 kts | 351° |
| 2026-05-03 21:57 | 44.74830 | -73.52824 | 17597 ft | 300 kts | 351° |
| 2026-05-03 21:57 | 44.76901 | -73.53072 | 17196 ft | 298 kts | 351° |
| 2026-05-03 21:58 | 44.78964 | -73.53318 | 16794 ft | 297 kts | 351° |
| 2026-05-03 21:58 | 44.81015 | -73.53565 | 16416 ft | 295 kts | 351° |
| 2026-05-03 21:58 | 44.83057 | -73.53812 | 16031 ft | 294 kts | 351° |
| 2026-05-03 21:58 | 44.85091 | -73.54058 | 15651 ft | 293 kts | 351° |
| 2026-05-03 21:59 | 44.87117 | -73.54297 | 15274 ft | 292 kts | 351° |
| 2026-05-03 21:59 | 44.89138 | -73.54522 | 14897 ft | 291 kts | 352° |
| 2026-05-03 21:59 | 44.91154 | -73.54737 | 14521 ft | 290 kts | 352° |
| 2026-05-03 21:59 | 44.93163 | -73.54950 | 14147 ft | 289 kts | 352° |
| 2026-05-03 22:00 | 44.95165 | -73.55164 | 13769 ft | 288 kts | 352° |
| 2026-05-03 22:00 | 44.97164 | -73.55379 | 13360 ft | 288 kts | 352° |
| 2026-05-03 22:00 | 44.99153 | -73.55597 | 12974 ft | 286 kts | 352° |
| 2026-05-03 22:00 | 45.01131 | -73.55815 | 12585 ft | 284 kts | 351° |
| 2026-05-03 22:01 | 45.03098 | -73.56035 | 12195 ft | 283 kts | 351° |
| 2026-05-03 22:01 | 45.05053 | -73.56255 | 11808 ft | 281 kts | 351° |
| 2026-05-03 22:01 | 45.06997 | -73.56471 | 11415 ft | 280 kts | 351° |
| 2026-05-03 22:01 | 45.08932 | -73.56686 | 11030 ft | 278 kts | 351° |
| 2026-05-03 22:02 | 45.10846 | -73.56897 | 10821 ft | 274 kts | 351° |
| 2026-05-03 22:02 | 45.12744 | -73.57106 | 10654 ft | 273 kts | 351° |
| 2026-05-03 22:02 | 45.14633 | -73.57314 | 10471 ft | 272 kts | 351° |
| 2026-05-03 22:02 | 45.16518 | -73.57522 | 10278 ft | 271 kts | 351° |
| 2026-05-03 22:03 | 45.18398 | -73.57730 | 10108 ft | 271 kts | 351° |
| 2026-05-03 22:03 | 45.20280 | -73.57937 | 9911 ft | 272 kts | 351° |
| 2026-05-03 22:03 | 45.22140 | -73.58143 | 9722 ft | 271 kts | 351° |
| 2026-05-03 22:03 | 45.24017 | -73.58352 | 9525 ft | 270 kts | 351° |
| 2026-05-03 22:04 | 45.25892 | -73.58559 | 9333 ft | 270 kts | 351° |
| 2026-05-03 22:04 | 45.27741 | -73.58763 | 9146 ft | 262 kts | 351° |
| 2026-05-03 22:04 | 45.29526 | -73.58959 | 8970 ft | 252 kts | 351° |
| 2026-05-03 22:04 | 45.31284 | -73.59153 | 8483 ft | 255 kts | 351° |
| 2026-05-03 22:05 | 45.33058 | -73.59348 | 8020 ft | 257 kts | 351° |
| 2026-05-03 22:05 | 45.34842 | -73.59545 | 7566 ft | 257 kts | 351° |
| 2026-05-03 22:05 | 45.36617 | -73.59738 | 7112 ft | 252 kts | 351° |
| 2026-05-03 22:05 | 45.38343 | -73.59744 | 6680 ft | 246 kts | 3° |
| 2026-05-03 22:06 | 45.39981 | -73.59143 | 6252 ft | 242 kts | 19° |
| 2026-05-03 22:06 | 45.41439 | -73.57988 | 5812 ft | 238 kts | 31° |
| 2026-05-03 22:06 | 45.42788 | -73.56678 | 5387 ft | 231 kts | 30° |
| 2026-05-03 22:06 | 45.44099 | -73.55415 | 4977 ft | 225 kts | 30° |
| 2026-05-03 22:07 | 45.45378 | -73.54184 | 4585 ft | 220 kts | 30° |
| 2026-05-03 22:07 | 45.46635 | -73.52976 | 4335 ft | 216 kts | 30° |
| 2026-05-03 22:07 | 45.47886 | -73.51773 | 4295 ft | 218 kts | 30° |
| 2026-05-03 22:07 | 45.49149 | -73.50559 | 4221 ft | 218 kts | 30° |
| 2026-05-03 22:08 | 45.50409 | -73.49352 | 4128 ft | 218 kts | 30° |
| 2026-05-03 22:08 | 45.51665 | -73.48145 | 4004 ft | 217 kts | 30° |
| 2026-05-03 22:08 | 45.52912 | -73.46942 | 3877 ft | 216 kts | 30° |
| 2026-05-03 22:08 | 45.54159 | -73.45736 | 3738 ft | 216 kts | 30° |
| 2026-05-03 22:09 | 45.55403 | -73.44534 | 3632 ft | 216 kts | 30° |
| 2026-05-03 22:09 | 45.56627 | -73.43290 | 3524 ft | 218 kts | 38° |
| 2026-05-03 22:09 | 45.57740 | -73.41828 | 3422 ft | 217 kts | 39° |
| 2026-05-03 22:10 | 45.59984 | -73.38942 | 3213 ft | 214 kts | 28° |
| 2026-05-03 22:10 | 45.61311 | -73.38248 | 3120 ft | 196 kts | 0° |
| 2026-05-03 22:10 | 45.62601 | -73.38450 | 3057 ft | 182 kts | 336° |
| 2026-05-03 22:10 | 45.63653 | -73.39365 | 2992 ft | 176 kts | 312° |
| 2026-05-03 22:11 | 45.64337 | -73.40778 | 2990 ft | 173 kts | 290° |
| 2026-05-03 22:11 | 45.64569 | -73.42442 | 2996 ft | 172 kts | 269° |
| 2026-05-03 22:11 | 45.64401 | -73.44133 | 2996 ft | 172 kts | 261° |
| 2026-05-03 22:11 | 45.64198 | -73.45812 | 2997 ft | 170 kts | 262° |
| 2026-05-03 22:12 | 45.64001 | -73.47480 | 2999 ft | 170 kts | 261° |
| 2026-05-03 22:12 | 45.63805 | -73.49152 | 2999 ft | 172 kts | 262° |
| 2026-05-03 22:12 | 45.63606 | -73.50833 | 2999 ft | 172 kts | 262° |
| 2026-05-03 22:12 | 45.63388 | -73.52508 | 2994 ft | 170 kts | 256° |
| 2026-05-03 22:13 | 45.62934 | -73.54008 | 2995 ft | 163 kts | 238° |
| 2026-05-03 22:13 | 45.62191 | -73.55222 | 2996 ft | 163 kts | 230° |
| 2026-05-03 22:13 | 45.61389 | -73.56360 | 3003 ft | 162 kts | 228° |
| 2026-05-03 22:13 | 45.60574 | -73.57465 | 3002 ft | 162 kts | 227° |
| 2026-05-03 22:14 | 45.59748 | -73.58567 | 3004 ft | 163 kts | 227° |
| 2026-05-03 22:14 | 45.58921 | -73.59661 | 2922 ft | 162 kts | 227° |
| 2026-05-03 22:14 | 45.58091 | -73.60757 | 2763 ft | 162 kts | 227° |
| 2026-05-03 22:14 | 45.57263 | -73.61848 | 2555 ft | 161 kts | 227° |
| 2026-05-03 22:15 | 45.56438 | -73.62934 | 2343 ft | 162 kts | 227° |
| 2026-05-03 22:15 | 45.55618 | -73.64013 | 2118 ft | 160 kts | 226° |
| 2026-05-03 22:15 | 45.54802 | -73.65087 | 1900 ft | 157 kts | 226° |
| 2026-05-03 22:15 | 45.54028 | -73.66102 | 1687 ft | 146 kts | 227° |
| 2026-05-03 22:16 | 45.53303 | -73.67055 | 1494 ft | 137 kts | 227° |
| 2026-05-03 22:16 | 45.52615 | -73.67960 | 1306 ft | 133 kts | 227° |
| 2026-05-03 22:16 | 45.51939 | -73.68847 | 1115 ft | 132 kts | 229° |
| 2026-05-03 22:16 | 45.51251 | -73.69721 | 934 ft | 132 kts | 227° |
| 2026-05-03 22:17 | 45.50571 | -73.70606 | 722 ft | 133 kts | 231° |
| 2026-05-03 22:17 | 45.49904 | -73.71498 | 579 ft | 133 kts | 234° |
| 2026-05-03 22:17 | 45.49234 | -73.72396 | 408 ft | 133 kts | 229° |
| 2026-05-03 22:17 | 45.48554 | -73.73271 | 223 ft | 131 kts | 239° |
| 2026-05-03 22:18 | 45.47904 | -73.74151 | 114 ft | 122 kts | 226° |
| 2026-05-03 22:18 | 45.47373 | -73.74849 | 112 ft | 74 kts | 222° |
| 2026-05-03 22:18 | 45.47096 | -73.75214 | 112 ft | 49 kts | 223° |
| 2026-05-03 22:18 | 45.46873 | -73.75491 | 108 ft | 30 kts | 215° |
| 2026-05-03 22:19 | 45.46711 | -73.75596 | 108 ft | 24 kts | 195° |
| 2026-05-03 22:19 | 45.46542 | -73.75650 | 105 ft | 26 kts | 192° |
| 2026-05-03 22:19 | 45.46392 | -73.75696 | 104 ft | 19 kts | 191° |
| 2026-05-03 22:19 | 45.46301 | -73.75754 | 105 ft | 15 kts | 237° |
| 2026-05-03 22:20 | 45.46289 | -73.75911 | 105 ft | 17 kts | 268° |
| 2026-05-03 22:20 | 45.46283 | -73.76091 | 104 ft | 19 kts | 264° |
| 2026-05-03 22:20 | 45.46205 | -73.76183 | 103 ft | 17 kts | 180° |
| 2026-05-03 22:20 | 45.46100 | -73.76120 | 103 ft | 15 kts | 145° |
| 2026-05-03 22:21 | 45.46049 | -73.76072 | 104 ft | 12 kts | 156° |
| 2026-05-03 22:21 | 45.45941 | -73.76057 | 104 ft | 13 kts | 177° |
| 2026-05-03 22:21 | 45.45843 | -73.76041 | 104 ft | 16 kts | 171° |
| 2026-05-03 22:21 | 45.45774 | -73.76015 | 105 ft | 14 kts | 155° |
| 2026-05-03 22:22 | 45.45709 | -73.75918 | 104 ft | 14 kts | 126° |
| 2026-05-03 22:22 | 45.45647 | -73.75803 | 105 ft | 15 kts | 129° |
| 2026-05-03 22:22 | 45.45616 | -73.75704 | 105 ft | 10 kts | 82° |
| 2026-05-03 22:22 | 45.45616 | -73.75616 | 105 ft | 8 kts | 123° |
| 2026-05-03 22:23 | 45.45585 | -73.75586 | 105 ft | 2 kts | 153° |
| 2026-05-03 22:23 | 45.45578 | -73.75581 | 105 ft | 0 kts | 154° |